臺北終端管制區 - 桃園南區雷達席

METAR RCTP 130730Z 33008KT 300V010 9999 FEW015 BKN050 BKN080 33/28 Q1011 NOSIG RMK A2986=

站台狀態:Online
最後更新:2020-08-13 15:30:01